Time;durP1;ratioP1;P1;durP2;ratioP2;P2;SDS_P1;SDS_P2;PMS_P1;PMS_P2;Temp;Humidity;BMP_temperature;BMP_pressure;BME280_temperature;BME280_humidity;BME280_pressure;Samples;Min_cycle;Max_cycle;Signal;HPM_P1;HPM_P2
2022/12/23 00:01:45;;;;;;;50.75;30.90;;;;;;;1.59;84.65;99296.74;1713321;82;21069;-72
2022/12/23 00:04:11;;;;;;;52.62;34.05;;;;;;;1.54;84.64;99292.67;1689831;84;21559;-70
2022/12/23 00:06:39;;;;;;;54.40;31.60;;;;;;;1.52;84.72;99288.52;1688229;84;21089;-72
2022/12/23 00:09:05;;;;;;;50.25;32.13;;;;;;;1.53;84.66;99297.57;1691924;83;20975;-70
2022/12/23 00:11:31;;;;;;;50.12;33.23;;;;;;;1.62;84.18;99289.45;1688762;84;21036;-71
2022/12/23 00:16:43;;;;;;;47.80;32.10;;;;;;;1.60;84.18;99279.58;1703640;84;21602;-70
2022/12/23 00:19:10;;;;;;;51.08;33.28;;;;;;;1.51;84.05;99273.30;1703622;84;21755;-72
2022/12/23 00:21:38;;;;;;;50.03;32.33;;;;;;;1.49;84.34;99277.01;1732462;81;21097;-68
2022/12/23 00:24:05;;;;;;;48.38;31.77;;;;;;;1.59;84.19;99270.08;1718315;83;21041;-70
2022/12/23 00:26:31;;;;;;;51.13;33.78;;;;;;;1.62;83.76;99272.43;1720126;81;21014;-70
2022/12/23 00:28:58;;;;;;;46.18;30.45;;;;;;;1.57;84.01;99262.82;1718396;83;21053;-71
2022/12/23 00:31:25;;;;;;;42.62;29.52;;;;;;;1.53;84.00;99266.64;1718375;83;21203;-70
2022/12/23 00:33:53;;;;;;;49.23;30.27;;;;;;;1.48;83.87;99268.78;1719819;83;21018;-71
2022/12/23 00:36:23;;;;;;;48.28;30.43;;;;;;;1.52;83.78;99266.27;1721272;83;21099;-70
2022/12/23 00:44:03;;;;;;;43.73;27.95;;;;;;;1.50;84.02;99252.47;1720528;82;21812;-74
2022/12/23 00:46:31;;;;;;;44.88;29.05;;;;;;;1.45;84.07;99253.30;1711963;83;21070;-73
2022/12/23 00:51:42;;;;;;;40.43;26.68;;;;;;;1.56;83.85;99238.44;1709794;83;21041;-73
2022/12/23 00:54:09;;;;;;;46.63;29.70;;;;;;;1.49;83.87;99238.56;1748468;81;21014;-72
2022/12/23 00:56:35;;;;;;;47.40;29.50;;;;;;;1.44;83.95;99236.78;1721732;82;21253;-71
2022/12/23 00:59:02;;;;;;;40.80;27.48;;;;;;;1.40;84.18;99248.45;1722783;81;21020;-72
2022/12/23 01:06:59;;;;;;;36.68;26.17;;;;;;;1.47;84.09;99235.23;1744897;82;21036;-73
2022/12/23 01:09:25;;;;;;;47.15;28.87;;;;;;;1.42;84.52;99237.38;1745132;82;21235;-72
2022/12/23 01:11:53;;;;;;;39.08;25.55;;;;;;;1.37;84.64;99229.91;1747366;82;21083;-72
2022/12/23 01:14:19;;;;;;;38.78;26.97;;;;;;;1.43;84.70;99231.66;1744451;82;21072;-73
2022/12/23 01:16:46;;;;;;;40.92;27.73;;;;;;;1.52;84.42;99238.30;1744192;82;21077;-71
2022/12/23 01:19:13;;;;;;;41.50;28.15;;;;;;;1.48;84.32;99240.81;1745722;82;21023;-70
2022/12/23 01:21:40;;;;;;;40.10;27.35;;;;;;;1.42;84.53;99241.79;1731590;80;21120;-73
2022/12/23 01:24:06;;;;;;;41.33;27.60;;;;;;;1.39;84.74;99240.23;1746697;82;21019;-70
2022/12/23 01:26:34;;;;;;;43.15;27.80;;;;;;;1.41;84.82;99234.42;1733047;80;21048;-70
2022/12/23 01:29:00;;;;;;;45.83;28.83;;;;;;;1.50;84.47;99240.20;1718864;83;21037;-68
2022/12/23 01:31:27;;;;;;;38.73;26.52;;;;;;;1.45;84.49;99231.91;1744787;82;21027;-68
2022/12/23 01:33:54;;;;;;;39.70;27.30;;;;;;;1.41;84.72;99242.27;1743881;82;21128;-70
2022/12/23 01:36:21;;;;;;;37.48;24.50;;;;;;;1.36;84.83;99244.41;1744516;82;21040;-70
2022/12/23 01:38:47;;;;;;;41.33;27.20;;;;;;;1.38;84.75;99245.95;1745841;81;21041;-69
2022/12/23 01:44:53;;;;;;;42.58;28.45;;;;;;;1.46;84.73;99237.48;1742292;80;21039;-71
2022/12/23 01:47:43;;;;;;;38.35;25.20;;;;;;;1.39;84.91;99236.30;1736741;82;21130;-68
2022/12/23 01:50:33;;;;;;;38.88;25.45;;;;;;;1.30;85.16;99231.33;1735728;82;21622;-70
2022/12/23 01:53:09;;;;;;;38.33;26.90;;;;;;;1.37;85.09;99229.91;1744359;81;21548;-70
2022/12/23 01:55:45;;;;;;;36.90;25.62;;;;;;;1.37;85.14;99229.91;1735194;82;21098;-69
2022/12/23 01:58:28;;;;;;;42.33;27.70;;;;;;;1.28;85.44;99222.77;1742837;82;21129;-68
2022/12/23 02:03:44;;;;;;;36.17;23.00;;;;;;;1.23;85.93;99228.84;1745162;80;21540;-68
2022/12/23 02:09:17;;;;;;;37.03;26.93;;;;;;;1.33;85.80;99223.25;1744235;82;21055;-69
2022/12/23 02:12:31;;;;;;;40.23;27.20;;;;;;;1.25;85.94;99231.34;1742245;82;21535;-70
2022/12/23 02:18:31;;;;;;;42.40;27.65;;;;;;;1.25;86.28;99217.77;1741634;80;21092;-71
2022/12/23 02:21:18;;;;;;;43.40;27.75;;;;;;;1.22;86.34;99218.48;1747935;80;21038;-71
2022/12/23 02:24:16;;;;;;;39.25;25.40;;;;;;;1.12;86.69;99221.00;1740479;82;21015;-69
2022/12/23 02:26:58;;;;;;;39.67;25.72;;;;;;;1.05;87.20;99227.20;1731988;82;21036;-70
2022/12/23 02:30:16;;;;;;;39.63;24.90;;;;;;;1.16;87.05;99219.34;1720044;82;21159;-69
2022/12/23 02:32:54;;;;;;;41.25;26.90;;;;;;;1.15;87.01;99212.92;1735174;82;21094;-69
2022/12/23 02:35:34;;;;;;;44.63;27.10;;;;;;;1.05;87.29;99204.97;1739694;82;21514;-68
2022/12/23 02:38:26;;;;;;;38.88;25.68;;;;;;;1.01;87.59;99205.34;1741784;80;21052;-69
2022/12/23 02:41:07;;;;;;;37.58;27.27;;;;;;;1.09;87.48;99200.33;1727825;80;21066;-70
2022/12/23 02:43:42;;;;;;;45.17;29.18;;;;;;;1.17;87.12;99196.62;1745477;80;21094;-70
2022/12/23 02:46:14;;;;;;;43.20;27.27;;;;;;;1.13;87.26;99202.56;1746485;82;21026;-71
2022/12/23 02:48:53;;;;;;;41.37;26.55;;;;;;;1.07;87.40;99196.52;1744860;82;21031;-71
2022/12/23 02:51:21;;;;;;;34.85;25.17;;;;;;;1.05;87.48;99197.60;1743513;82;21035;-72
2022/12/23 02:53:54;;;;;;;41.83;28.17;;;;;;;1.19;87.23;99193.41;1744595;82;21038;-74
2022/12/23 02:56:22;;;;;;;39.38;26.95;;;;;;;1.17;87.08;99197.45;1731833;81;21131;-70
2022/12/23 02:58:57;;;;;;;43.60;26.90;;;;;;;1.13;87.22;99201.27;1719827;81;21127;-71
2022/12/23 03:01:25;;;;;;;37.63;26.05;;;;;;;1.08;87.43;99199.50;1749266;81;21657;-70
2022/12/23 03:03:51;;;;;;;37.88;25.80;;;;;;;1.10;87.48;99196.29;1764497;80;21073;-70
2022/12/23 03:06:31;;;;;;;32.90;24.70;;;;;;;1.19;87.21;99197.33;1742971;80;21076;-70
2022/12/23 03:08:58;;;;;;;37.70;26.30;;;;;;;1.18;87.25;99197.81;1743213;80;21842;-74
2022/12/23 03:11:51;;;;;;;40.50;26.40;;;;;;;1.14;87.48;99199.02;1743776;80;21051;-73
2022/12/23 03:14:30;;;;;;;34.78;23.98;;;;;;;1.12;87.68;99197.45;1702769;82;21043;-76
2022/12/23 03:17:07;;;;;;;36.75;25.45;;;;;;;1.17;87.54;99203.98;1716668;81;21611;-75
2022/12/23 03:19:57;;;;;;;37.88;25.05;;;;;;;1.23;87.34;99199.23;1743008;80;21035;-75
2022/12/23 03:22:40;;;;;;;41.80;27.77;;;;;;;1.18;87.46;99207.45;1743242;82;21252;-73
2022/12/23 03:25:48;;;;;;;37.88;26.48;;;;;;;1.09;87.72;99189.86;1746747;80;21532;-73
2022/12/23 03:28:20;;;;;;;34.43;25.30;;;;;;;1.07;87.92;99189.16;1708575;83;21045;-72
2022/12/23 03:30:50;;;;;;;36.15;26.23;;;;;;;1.17;87.74;99195.31;1721075;82;21090;-72
2022/12/23 03:33:25;;;;;;;38.10;27.60;;;;;;;1.12;87.90;99201.37;1722379;82;21061;-72
2022/12/23 03:35:59;;;;;;;33.50;23.98;;;;;;;1.04;88.08;99197.23;1693911;83;21796;-72
2022/12/23 03:38:25;;;;;;;39.95;23.62;;;;;;;1.04;88.23;99200.67;1743761;80;22053;-72
2022/12/23 03:40:55;;;;;;;41.15;28.75;;;;;;;1.14;87.98;99213.86;1746012;82;21055;-72
2022/12/23 03:43:29;;;;;;;35.63;26.50;;;;;;;1.10;88.09;99208.06;1731074;81;21092;-71
2022/12/23 03:45:59;;;;;;;41.98;25.62;;;;;;;1.01;88.44;99212.70;1721654;82;22086;-69
2022/12/23 03:48:38;;;;;;;40.03;25.72;;;;;;;0.98;88.56;99207.70;1717329;82;21148;-69
2022/12/23 03:51:16;;;;;;;37.75;26.52;;;;;;;1.07;88.44;99204.84;1718672;82;21136;-70
2022/12/23 03:54:02;;;;;;;41.02;30.00;;;;;;;1.04;88.40;99203.77;1718906;82;21093;-70
2022/12/23 03:56:37;;;;;;;40.92;26.62;;;;;;;0.95;88.58;99199.63;1726508;82;21022;-71
2022/12/23 03:59:11;;;;;;;37.95;24.98;;;;;;;0.91;88.77;99195.59;1727587;83;21010;-69
2022/12/23 04:02:00;;;;;;;40.55;26.12;;;;;;;1.01;88.73;99185.23;1727095;83;21210;-70
2022/12/23 04:04:56;;;;;;;39.80;27.62;;;;;;;1.10;88.61;99200.66;1740677;80;21554;-70
2022/12/23 04:07:33;;;;;;;40.43;26.95;;;;;;;1.08;88.53;99182.95;1746264;80;21009;-72
2022/12/23 04:10:00;;;;;;;44.27;27.10;;;;;;;1.03;88.59;99187.25;1725800;81;21226;-70
2022/12/23 04:12:27;;;;;;;39.98;27.77;;;;;;;1.05;88.55;99180.59;1744869;82;21096;-71
2022/12/23 04:14:53;;;;;;;43.25;29.00;;;;;;;1.12;88.17;99181.75;1745562;80;21660;-69
2022/12/23 04:17:20;;;;;;;44.85;28.80;;;;;;;1.06;88.22;99183.06;1741436;80;21103;-70
2022/12/23 04:19:46;;;;;;;41.70;28.38;;;;;;;0.97;88.41;99187.73;1747094;80;21083;-70
2022/12/23 04:22:14;;;;;;;38.13;25.55;;;;;;;0.96;88.57;99181.66;1735403;82;21063;-71
2022/12/23 04:24:41;;;;;;;43.38;28.73;;;;;;;1.08;88.27;99194.27;1735936;82;21021;-68
2022/12/23 04:27:12;;;;;;;40.80;28.50;;;;;;;1.05;88.15;99189.75;1735505;82;21071;-72
2022/12/23 04:29:39;;;;;;;42.25;27.58;;;;;;;0.96;88.40;99191.30;1730597;80;21042;-70
2022/12/23 04:32:05;;;;;;;43.42;27.60;;;;;;;0.91;88.61;99189.53;1735505;82;21099;-72
2022/12/23 04:34:33;;;;;;;40.45;26.60;;;;;;;0.94;88.52;99212.33;1746117;80;21001;-71
2022/12/23 04:37:00;;;;;;;42.03;27.50;;;;;;;1.02;88.18;99205.67;1732190;80;21070;-70
2022/12/23 04:39:26;;;;;;;39.05;26.80;;;;;;;0.97;88.32;99209.97;1746425;80;21187;-72
2022/12/23 04:41:53;;;;;;;42.85;27.42;;;;;;;0.90;88.46;99224.47;1745805;80;21063;-70
2022/12/23 04:44:20;;;;;;;43.70;27.93;;;;;;;0.87;88.57;99222.08;1733418;80;21030;-70
2022/12/23 04:46:46;;;;;;;40.12;27.00;;;;;;;0.94;88.42;99225.89;1747213;81;21065;-68
2022/12/23 04:49:13;;;;;;;45.28;29.55;;;;;;;0.96;88.53;99231.83;1742153;80;21079;-69
2022/12/23 04:51:39;;;;;;;48.15;28.95;;;;;;;0.91;88.67;99240.53;1748087;80;21148;-68
2022/12/23 04:54:06;;;;;;;46.18;28.15;;;;;;;0.82;88.91;99239.93;1746783;80;21245;-65
2022/12/23 04:56:32;;;;;;;47.35;31.12;;;;;;;0.86;88.83;99234.81;1749009;81;21016;-67
2022/12/23 04:59:01;;;;;;;42.27;26.93;;;;;;;0.91;88.68;99228.77;1693309;82;21095;-69
2022/12/23 05:01:27;;;;;;;44.77;29.63;;;;;;;0.85;88.88;99218.30;1715879;82;21076;-70
2022/12/23 05:03:54;;;;;;;50.25;30.37;;;;;;;0.82;89.02;99219.84;1720369;82;21120;-70
2022/12/23 05:06:20;;;;;;;50.48;31.00;;;;;;;0.77;89.32;99217.59;1745106;82;21060;-71
2022/12/23 05:08:47;;;;;;;44.30;28.57;;;;;;;0.78;89.24;99208.77;1732016;81;20993;-71
2022/12/23 05:11:13;;;;;;;45.15;28.85;;;;;;;0.86;89.02;99201.64;1722980;83;21045;-71
2022/12/23 05:13:40;;;;;;;51.75;33.75;;;;;;;0.81;89.26;99205.08;1720467;82;21009;-74
2022/12/23 05:16:07;;;;;;;48.80;29.60;;;;;;;0.73;89.54;99202.23;1745468;80;21996;-71
2022/12/23 05:18:33;;;;;;;50.05;30.45;;;;;;;0.68;89.81;99201.78;1746387;82;21020;-74
2022/12/23 05:21:00;;;;;;;47.95;30.40;;;;;;;0.75;89.75;99195.95;1733835;80;21107;-73
2022/12/23 05:23:26;;;;;;;46.33;31.80;;;;;;;0.82;89.51;99194.16;1745679;80;21102;-71
2022/12/23 05:25:53;;;;;;;45.23;30.50;;;;;;;0.72;89.67;99204.51;1732499;80;21017;-72
2022/12/23 05:28:21;;;;;;;51.85;31.48;;;;;;;0.61;90.09;99207.94;1734716;82;21099;-70
2022/12/23 05:30:47;;;;;;;49.83;31.37;;;;;;;0.63;90.20;99196.06;1744675;82;21068;-71
2022/12/23 05:33:14;;;;;;;53.98;33.00;;;;;;;0.68;90.08;99183.00;1746404;80;21035;-71
2022/12/23 05:35:40;;;;;;;49.03;32.78;;;;;;;0.64;90.32;99184.19;1743639;82;21099;-70
2022/12/23 05:38:07;;;;;;;49.23;30.85;;;;;;;0.59;90.45;99183.21;1744684;82;21007;-72
2022/12/23 05:40:34;;;;;;;47.93;31.33;;;;;;;0.57;90.49;99175.97;1743655;80;21292;-71
2022/12/23 05:43:00;;;;;;;50.05;31.62;;;;;;;0.68;90.25;99170.41;1731338;82;21036;-70
2022/12/23 05:45:27;;;;;;;54.95;36.03;;;;;;;0.73;89.99;99178.22;1737043;80;21540;-71
2022/12/23 05:47:53;;;;;;;70.90;40.90;;;;;;;0.69;90.01;99177.28;1748266;81;21508;-71
2022/12/23 05:50:20;;;;;;;69.37;38.08;;;;;;;0.65;89.97;99168.02;1750272;80;21529;-70
2022/12/23 05:52:48;;;;;;;68.50;40.05;;;;;;;0.67;89.85;99186.55;1725901;82;21146;-72
2022/12/23 05:55:15;;;;;;;68.02;41.10;;;;;;;0.78;89.34;99200.11;1725446;82;21039;-72
2022/12/23 05:57:42;;;;;;;70.42;43.25;;;;;;;0.76;89.36;99200.70;1725017;82;21029;-71
2022/12/23 06:00:11;;;;;;;59.05;35.25;;;;;;;0.70;89.46;99195.47;1753247;80;21085;-77
2022/12/23 06:02:41;;;;;;;53.13;33.20;;;;;;;0.70;89.48;99211.16;1749078;81;21060;-72
2022/12/23 06:05:08;;;;;;;63.15;36.48;;;;;;;0.82;89.15;99215.91;1749834;80;21244;-71
2022/12/23 06:07:36;;;;;;;51.48;32.98;;;;;;;0.86;88.89;99210.80;1737009;80;20995;-72
2022/12/23 06:10:05;;;;;;;58.70;34.25;;;;;;;0.84;88.85;99220.55;1750927;81;20978;-73
2022/12/23 06:12:33;;;;;;;53.15;33.63;;;;;;;0.77;88.95;99218.03;1749770;80;21026;-68
2022/12/23 06:15:00;;;;;;;47.30;30.88;;;;;;;0.81;88.91;99216.84;1749946;81;21112;-70
2022/12/23 06:17:27;;;;;;;51.73;34.05;;;;;;;0.90;88.54;99212.70;1752032;81;21604;-73
2022/12/23 06:19:54;;;;;;;46.33;31.82;;;;;;;0.87;88.59;99211.17;1735111;81;21607;-73
2022/12/23 06:22:22;;;;;;;46.18;30.62;;;;;;;0.84;88.76;99227.56;1752132;81;21044;-71
2022/12/23 06:24:49;;;;;;;50.45;33.63;;;;;;;0.80;88.92;99250.50;1752839;80;21485;-69
2022/12/23 06:27:16;;;;;;;60.60;40.70;;;;;;;0.89;88.75;99251.56;1750380;80;22094;-72
2022/12/23 06:29:43;;;;;;;51.65;34.90;;;;;;;0.90;88.73;99248.83;1752013;81;21800;-69
2022/12/23 06:32:10;;;;;;;49.42;31.62;;;;;;;0.83;88.95;99246.36;1747694;80;21061;-71
2022/12/23 06:34:37;;;;;;;50.28;31.05;;;;;;;0.76;89.24;99239.44;1733664;81;21023;-72
2022/12/23 06:37:05;;;;;;;49.77;33.60;;;;;;;0.81;89.19;99246.92;1734371;82;21540;-72
2022/12/23 06:39:31;;;;;;;54.88;35.33;;;;;;;0.76;89.36;99238.13;1734272;81;21053;-73
2022/12/23 08:53:58;;;;;;;49.00;34.57;;;;;;;2.77;84.64;99196.58;1762639;79;23097;-68
2022/12/23 08:56:34;;;;;;;48.42;36.53;;;;;;;2.91;82.20;99214.58;1808429;78;20972;-67
2022/12/23 08:59:01;;;;;;;48.98;36.40;;;;;;;3.00;81.50;99208.20;1804758;78;21127;-68
2022/12/23 09:01:30;;;;;;;52.75;36.00;;;;;;;3.11;80.32;99218.58;1822478;78;20973;-70
2022/12/23 09:03:57;;;;;;;50.38;34.40;;;;;;;3.11;80.32;99218.58;1822727;78;21157;-68
2022/12/23 09:06:27;;;;;;;53.85;35.20;;;;;;;3.29;79.73;99214.85;1822580;78;20969;-70
2022/12/23 09:08:53;;;;;;;46.42;33.88;;;;;;;3.51;78.83;99230.36;1819459;78;21512;-70
2022/12/23 09:11:23;;;;;;;49.58;34.70;;;;;;;3.60;77.78;99226.59;1809044;78;22138;-68
2022/12/23 09:13:50;;;;;;;51.45;35.52;;;;;;;3.68;77.40;99192.59;1789914;78;20973;-57
2022/12/23 09:16:17;;;;;;;55.08;35.23;;;;;;;3.77;77.41;99207.53;1807080;77;21100;-68
2022/12/23 09:18:43;;;;;;;50.67;34.40;;;;;;;4.00;76.72;99209.41;1813019;78;21072;-68
2022/12/23 09:21:17;;;;;;;49.38;34.75;;;;;;;4.18;75.69;99203.44;1801872;77;21045;-69
2022/12/23 09:23:43;;;;;;;;;;;;;;;4.16;75.53;99204.89;1811199;78;22271;-68
2022/12/23 09:26:09;;;;;;;57.65;40.15;;;;;;;4.10;75.79;99212.84;1809568;77;21012;-68
2022/12/23 09:28:36;;;;;;;53.50;37.60;;;;;;;4.00;75.46;99204.14;1808458;78;21040;-68
2022/12/23 09:31:07;;;;;;;51.18;36.77;;;;;;;3.92;75.62;99206.61;1787525;78;21048;-68
2022/12/23 09:33:34;;;;;;;45.90;32.65;;;;;;;3.89;76.13;99200.34;1807392;77;21034;-67
2022/12/23 09:36:01;;;;;;;47.70;34.00;;;;;;;3.90;75.94;99187.06;1806282;78;21105;-67
2022/12/23 09:38:28;;;;;;;50.20;37.17;;;;;;;3.82;76.11;99191.34;1806636;78;21486;-68
2022/12/23 09:41:21;;;;;;;54.88;36.45;;;;;;;3.74;76.38;99197.28;1813366;77;22393;-67
2022/12/23 09:43:59;;;;;;;50.23;35.15;;;;;;;3.65;76.58;99189.76;1812004;78;20990;-67
2022/12/23 09:46:27;;;;;;;47.70;33.33;;;;;;;3.61;77.20;99173.08;1805832;78;21496;-68
2022/12/23 09:49:11;;;;;;;45.83;33.25;;;;;;;3.67;76.52;99165.95;1811909;77;21218;-68
2022/12/23 09:51:38;;;;;;;47.58;33.63;;;;;;;3.82;76.63;99165.06;1804447;78;21010;-67
2022/12/23 09:54:21;;;;;;;51.25;36.42;;;;;;;3.87;76.70;99189.96;1818481;78;21018;-69
2022/12/23 09:56:55;;;;;;;52.75;36.58;;;;;;;3.87;75.95;99191.27;1817870;77;21488;-68
2022/12/23 10:00:02;;;;;;;59.27;40.33;;;;;;;3.93;76.22;99189.89;1822453;78;21026;-67
2022/12/23 10:02:48;;;;;;;47.08;34.73;;;;;;;4.14;75.85;99185.30;1820117;78;21147;-69
2022/12/23 10:05:57;;;;;;;55.45;40.83;;;;;;;4.59;74.46;99181.67;1816101;77;21005;-69
2022/12/23 10:08:43;;;;;;;60.43;39.98;;;;;;;4.83;73.87;99178.53;1815754;78;21717;-67
2022/12/23 10:11:18;;;;;;;53.92;38.30;;;;;;;4.92;73.57;99181.15;1819422;78;21010;-67
2022/12/23 10:14:15;;;;;;;64.70;41.65;;;;;;;4.90;72.41;99187.51;1814587;78;21026;-68
2022/12/23 10:16:48;;;;;;;56.23;40.38;;;;;;;4.74;73.00;99182.88;1813430;78;21329;-68
2022/12/23 10:19:31;;;;;;;51.77;37.33;;;;;;;4.52;72.86;99183.57;1809537;77;21438;-68
2022/12/23 10:22:03;;;;;;;54.63;36.83;;;;;;;4.35;73.60;99171.16;1820316;77;21552;-68
2022/12/23 10:24:38;;;;;;;47.65;36.25;;;;;;;4.29;74.12;99162.53;1757052;80;21096;-67
2022/12/23 10:27:28;;;;;;;51.05;37.13;;;;;;;4.34;73.98;99170.80;1743273;81;21540;-67
2022/12/23 10:29:59;;;;;;;57.58;39.35;;;;;;;4.27;74.31;99167.92;1764619;80;21241;-68
2022/12/23 10:32:40;;;;;;;55.05;38.23;;;;;;;4.19;74.44;99170.90;1735721;81;21520;-68
2022/12/23 10:35:32;;;;;;;51.35;37.53;;;;;;;4.13;74.81;99160.00;1745533;80;21037;-67
2022/12/23 10:38:29;;;;;;;57.27;39.23;;;;;;;4.10;74.79;99157.64;1739930;81;21568;-68
2022/12/23 10:41:18;;;;;;;52.98;35.55;;;;;;;4.03;74.54;99152.59;1736979;80;21580;-67
2022/12/23 10:44:17;;;;;;;50.75;36.00;;;;;;;4.03;74.54;99152.59;1745141;80;21804;-67
2022/12/23 10:47:07;;;;;;;51.23;37.65;;;;;;;4.12;74.75;99154.38;1771615;80;20981;-68
2022/12/23 10:50:13;;;;;;;54.63;39.18;;;;;;;4.13;74.94;99165.25;1707287;82;21095;-68
2022/12/23 10:52:42;;;;;;;55.40;37.80;;;;;;;4.12;74.91;99162.27;1736697;81;21087;-67
2022/12/23 10:55:22;;;;;;;54.60;38.00;;;;;;;4.27;74.89;99156.58;1733916;81;21539;-69
2022/12/23 10:57:49;;;;;;;51.92;35.88;;;;;;;4.40;74.37;99154.94;1734623;81;21148;-69
2022/12/23 11:00:20;;;;;;;43.87;34.15;;;;;;;4.45;74.02;99150.91;1741392;81;21701;-69
2022/12/23 11:03:11;;;;;;;44.18;33.75;;;;;;;4.85;72.69;99154.23;1738649;81;21052;-69
2022/12/23 11:05:38;;;;;;;53.00;36.68;;;;;;;5.26;72.21;99149.43;1736245;81;21047;-69
2022/12/23 11:08:04;;;;;;;61.37;38.45;;;;;;;5.51;70.66;99149.19;1713177;82;21044;-70
2022/12/23 11:10:33;;;;;;;50.73;37.38;;;;;;;5.61;70.64;99145.16;1677617;84;21284;-70
2022/12/23 11:13:00;;;;;;;47.95;35.92;;;;;;;5.77;70.29;99149.74;1739389;81;21117;-70
2022/12/23 11:15:39;;;;;;;55.20;39.75;;;;;;;5.83;69.88;99154.41;1707592;82;21067;-71
2022/12/23 11:18:14;;;;;;;48.33;36.17;;;;;;;5.90;69.56;99146.23;1704912;82;21036;-69
2022/12/23 11:20:43;;;;;;;48.48;36.53;;;;;;;6.08;69.37;99145.76;1735292;81;21056;-70
2022/12/23 11:23:31;;;;;;;50.95;37.30;;;;;;;6.23;68.27;99147.33;1738575;81;21151;-70
2022/12/23 11:26:09;;;;;;;49.98;38.13;;;;;;;6.15;67.72;99133.27;1737936;81;21071;-69
2022/12/23 11:28:39;;;;;;;57.80;41.10;;;;;;;5.87;68.39;99138.61;1737486;81;21047;-68
2022/12/23 11:31:10;;;;;;;57.45;42.95;;;;;;;5.70;69.24;99152.17;1686636;82;21072;-68
2022/12/23 11:33:47;;;;;;;54.60;38.88;;;;;;;5.55;69.39;99145.77;1690002;82;21115;-69
2022/12/23 11:36:17;;;;;;;51.63;38.67;;;;;;;5.37;69.83;99151.86;1733873;82;21145;-70
2022/12/23 11:38:51;;;;;;;56.33;39.27;;;;;;;5.22;70.19;99153.34;1739441;81;21052;-69
2022/12/23 11:41:21;;;;;;;49.93;35.68;;;;;;;5.07;70.71;99145.92;1736663;82;21505;-70
2022/12/23 11:44:00;;;;;;;48.78;36.40;;;;;;;5.01;71.14;99131.22;1736828;81;21092;-69
2022/12/23 11:46:30;;;;;;;57.43;37.40;;;;;;;5.04;71.27;99128.27;1740214;81;21022;-67
2022/12/23 11:49:19;;;;;;;51.35;36.93;;;;;;;5.02;71.84;99141.61;1741158;81;21890;-70
2022/12/23 11:52:12;;;;;;;58.35;41.88;;;;;;;5.00;71.53;99144.84;1707285;82;21068;-68
2022/12/23 11:54:38;;;;;;;55.15;41.28;;;;;;;4.87;71.79;99149.66;1738733;81;21044;-69
2022/12/23 11:57:10;;;;;;;59.25;39.05;;;;;;;4.71;72.16;99144.53;1735910;81;21026;-69
2022/12/23 11:59:41;;;;;;;52.40;37.80;;;;;;;4.64;72.63;99158.41;1740909;81;21112;-69
2022/12/23 12:02:16;;;;;;;53.13;39.13;;;;;;;4.53;72.97;99155.45;1737633;81;21318;-69
2022/12/23 12:04:42;;;;;;;51.85;36.33;;;;;;;4.42;73.16;99157.77;1738138;81;21045;-68
2022/12/23 12:07:12;;;;;;;50.95;35.08;;;;;;;4.34;73.52;99156.34;1718701;82;21162;-68
2022/12/23 12:09:39;;;;;;;50.78;38.35;;;;;;;4.33;73.87;99172.61;1713280;82;21045;-68
2022/12/23 12:12:16;;;;;;;55.63;39.08;;;;;;;4.25;74.14;99184.80;1740543;81;21041;-67
2022/12/23 12:14:49;;;;;;;52.17;36.30;;;;;;;4.18;74.66;99186.34;1715757;82;21993;-67
2022/12/23 12:17:44;;;;;;;51.90;38.48;;;;;;;4.10;74.87;99185.73;1738156;81;20997;-68
2022/12/23 12:20:28;;;;;;;52.75;37.42;;;;;;;3.99;75.27;99195.90;1733896;81;21088;-68
2022/12/23 12:23:26;;;;;;;53.28;37.08;;;;;;;3.94;75.50;99186.31;1717453;82;21048;-68
2022/12/23 12:25:58;;;;;;;60.30;40.73;;;;;;;4.02;75.59;99193.47;1737462;81;21059;-69
2022/12/23 12:28:47;;;;;;;59.77;42.20;;;;;;;3.91;75.70;99195.28;1738148;82;21830;-68
2022/12/23 12:31:34;;;;;;;58.92;42.15;;;;;;;3.83;76.41;99212.72;1713610;82;21123;-68
2022/12/23 12:34:38;;;;;;;54.35;39.45;;;;;;;3.78;76.82;99205.72;1732073;81;21156;-69
2022/12/23 12:37:51;;;;;;;56.92;39.53;;;;;;;3.79;77.12;99201.66;1734463;81;21122;-67
2022/12/23 12:40:43;;;;;;;57.58;41.20;;;;;;;3.95;76.73;99212.92;1740837;81;21497;-68
2022/12/23 12:43:37;;;;;;;58.05;40.65;;;;;;;4.00;76.59;99204.14;1738597;81;21149;-68
2022/12/23 12:46:25;;;;;;;55.38;39.50;;;;;;;3.97;76.44;99218.05;1733628;81;21062;-68
2022/12/23 12:49:04;;;;;;;59.18;38.83;;;;;;;3.84;76.87;99215.19;1718981;81;21498;-68
2022/12/23 12:51:41;;;;;;;53.98;38.42;;;;;;;3.84;76.87;99215.19;1736267;82;22013;-68
2022/12/23 12:54:30;;;;;;;58.75;40.08;;;;;;;3.97;76.59;99219.36;1731150;81;21497;-75
2022/12/23 12:56:57;;;;;;;57.48;42.13;;;;;;;3.96;76.47;99217.69;1740311;81;21166;-73
2022/12/23 12:59:28;;;;;;;61.25;42.98;;;;;;;3.84;76.62;99215.19;1743198;81;21123;-74
2022/12/23 13:02:27;;;;;;;63.13;43.83;;;;;;;3.77;76.97;99206.67;1706851;82;21564;-74
2022/12/23 13:05:17;;;;;;;59.80;41.70;;;;;;;3.68;77.34;99203.91;1740774;82;21072;-74
2022/12/23 13:08:12;;;;;;;58.60;40.12;;;;;;;3.68;77.34;99203.91;1734079;81;21040;-73
2022/12/23 13:10:49;;;;;;;55.43;37.78;;;;;;;3.73;77.17;99212.72;1740831;81;21084;-76
2022/12/23 13:13:52;;;;;;;57.15;40.35;;;;;;;3.74;77.13;99204.67;1740260;81;21049;-76
2022/12/23 13:16:53;;;;;;;57.75;39.50;;;;;;;3.64;77.38;99204.34;1737333;82;21028;-77
2022/12/23 13:19:45;;;;;;;66.82;44.42;;;;;;;3.56;77.80;99200.26;1706679;82;21067;-76
2022/12/23 13:22:17;;;;;;;61.90;44.15;;;;;;;3.48;78.02;99203.56;1726081;82;21572;-77
2022/12/23 13:25:06;;;;;;;63.80;41.23;;;;;;;3.40;78.27;99197.67;1726419;82;21888;-76
2022/12/23 13:27:56;;;;;;;64.58;42.23;;;;;;;3.48;78.22;99206.19;1735165;81;21087;-76
2022/12/23 13:30:25;;;;;;;60.85;42.05;;;;;;;3.39;78.41;99197.80;1733839;82;21044;-76
2022/12/23 13:33:23;;;;;;;64.82;43.52;;;;;;;3.39;78.41;99197.80;1735076;82;21072;-76
2022/12/23 13:36:27;;;;;;;64.07;43.98;;;;;;;3.33;78.79;99206.56;1735528;82;21012;-76
2022/12/23 13:39:01;;;;;;;63.00;43.33;;;;;;;3.26;79.01;99201.98;1716398;82;21029;-76
2022/12/23 13:41:46;;;;;;;60.45;41.10;;;;;;;3.16;79.31;99195.39;1732482;82;21064;-77
2022/12/23 13:44:13;;;;;;;61.40;42.40;;;;;;;3.08;79.64;99192.13;1729400;83;21060;-76
2022/12/23 13:47:09;;;;;;;65.57;43.28;;;;;;;3.13;79.66;99186.00;1758101;81;20993;-76
2022/12/23 13:49:52;;;;;;;65.97;44.77;;;;;;;3.00;80.16;99209.52;1704624;82;21095;-78
2022/12/23 13:52:46;;;;;;;71.22;47.73;;;;;;;3.00;80.16;99209.52;1731619;81;21073;-78
2022/12/23 13:55:29;;;;;;;64.50;42.25;;;;;;;2.89;80.40;99207.31;1733837;82;21503;-78
2022/12/23 13:58:09;;;;;;;70.47;45.28;;;;;;;2.76;81.18;99213.27;1733407;81;21092;-76
2022/12/23 14:00:36;;;;;;;71.28;46.05;;;;;;;2.76;81.32;99221.13;1733953;81;21786;-76
2022/12/23 14:03:07;;;;;;;70.08;46.02;;;;;;;2.76;81.32;99221.13;1678497;83;22076;-75
2022/12/23 14:05:44;;;;;;;67.82;46.45;;;;;;;2.67;81.78;99221.94;1743421;81;21530;-76
2022/12/23 14:08:28;;;;;;;78.10;47.48;;;;;;;2.57;81.96;99220.58;1692706;83;21088;-77
2022/12/23 14:11:04;;;;;;;68.95;44.45;;;;;;;2.49;82.47;99222.99;1732335;81;28933;-76
2022/12/23 14:13:51;;;;;;;66.00;41.60;;;;;;;2.50;82.82;99214.18;1714710;81;21595;-76
2022/12/23 14:16:49;;;;;;;65.87;44.45;;;;;;;2.58;82.70;99214.84;1708676;83;21742;-75
2022/12/23 14:19:55;;;;;;;68.67;45.20;;;;;;;2.55;82.84;99218.08;1744644;81;21026;-71
2022/12/23 14:22:39;;;;;;;70.47;47.60;;;;;;;2.49;83.04;99214.67;1727170;81;21023;-74
2022/12/23 14:25:30;;;;;;;67.70;43.87;;;;;;;2.41;83.25;99222.81;1735057;82;21096;-75
2022/12/23 14:28:42;;;;;;;64.67;44.08;;;;;;;2.41;83.30;99219.70;1733729;81;21548;-75
2022/12/23 14:31:30;;;;;;;67.30;44.83;;;;;;;2.49;83.18;99213.36;1741569;81;21577;-73
2022/12/23 14:34:23;;;;;;;66.45;46.10;;;;;;;2.43;83.36;99217.78;1732979;81;21098;-75
2022/12/23 14:37:26;;;;;;;72.42;48.80;;;;;;;2.35;83.59;99219.73;1715524;82;21032;-75
2022/12/23 14:39:50;;;;;;;73.62;43.23;;;;;;;2.26;83.93;99227.53;1733618;82;21055;-76
2022/12/23 14:42:39;;;;;;;64.25;43.90;;;;;;;2.26;84.09;99227.08;1697644;83;21582;-74
2022/12/23 14:45:34;;;;;;;72.60;48.38;;;;;;;2.31;83.91;99230.61;1734525;81;21359;-76
2022/12/23 14:48:04;;;;;;;68.42;46.35;;;;;;;2.21;84.14;99233.66;1722378;81;21155;-76